sensor_id;sensor_type;location;lat;lon;timestamp;P1;durP1;ratioP1;P2;durP2;ratioP2
72273;SDS011;60208;48.692;8.948;2023-04-19T00:00:28;10.85;;;9.40;;
72273;SDS011;60208;48.692;8.948;2023-04-19T00:02:53;12.50;;;10.50;;
72273;SDS011;60208;48.692;8.948;2023-04-19T00:05:19;11.30;;;9.57;;
72273;SDS011;60208;48.692;8.948;2023-04-19T00:07:47;10.68;;;9.40;;
72273;SDS011;60208;48.692;8.948;2023-04-19T00:10:13;11.48;;;9.60;;
72273;SDS011;60208;48.692;8.948;2023-04-19T00:12:38;13.35;;;9.98;;
72273;SDS011;60208;48.692;8.948;2023-04-19T00:15:04;12.68;;;9.52;;
72273;SDS011;60208;48.692;8.948;2023-04-19T00:17:30;12.70;;;9.80;;
72273;SDS011;60208;48.692;8.948;2023-04-19T00:19:56;12.48;;;10.30;;
72273;SDS011;60208;48.692;8.948;2023-04-19T00:22:22;11.63;;;10.13;;
72273;SDS011;60208;48.692;8.948;2023-04-19T00:24:47;14.10;;;10.77;;
72273;SDS011;60208;48.692;8.948;2023-04-19T00:27:12;11.93;;;10.10;;
72273;SDS011;60208;48.692;8.948;2023-04-19T00:29:38;13.77;;;10.38;;
72273;SDS011;60208;48.692;8.948;2023-04-19T00:32:03;13.10;;;10.20;;
72273;SDS011;60208;48.692;8.948;2023-04-19T00:34:30;13.27;;;10.98;;
72273;SDS011;60208;48.692;8.948;2023-04-19T00:36:55;12.57;;;10.60;;
72273;SDS011;60208;48.692;8.948;2023-04-19T00:39:21;12.00;;;10.77;;
72273;SDS011;60208;48.692;8.948;2023-04-19T00:41:47;13.27;;;10.48;;
72273;SDS011;60208;48.692;8.948;2023-04-19T00:44:12;14.40;;;10.40;;
72273;SDS011;60208;48.692;8.948;2023-04-19T00:46:37;12.50;;;10.50;;
72273;SDS011;60208;48.692;8.948;2023-04-19T00:49:03;12.95;;;11.02;;
72273;SDS011;60208;48.692;8.948;2023-04-19T00:51:28;12.48;;;10.50;;
72273;SDS011;60208;48.692;8.948;2023-04-19T00:53:54;12.63;;;10.75;;
72273;SDS011;60208;48.692;8.948;2023-04-19T00:56:20;13.05;;;11.07;;
72273;SDS011;60208;48.692;8.948;2023-04-19T00:58:46;14.27;;;11.15;;
72273;SDS011;60208;48.692;8.948;2023-04-19T01:01:13;12.18;;;10.85;;
72273;SDS011;60208;48.692;8.948;2023-04-19T01:03:38;13.65;;;11.15;;
72273;SDS011;60208;48.692;8.948;2023-04-19T01:06:03;13.23;;;11.38;;
72273;SDS011;60208;48.692;8.948;2023-04-19T01:08:29;14.60;;;10.60;;
72273;SDS011;60208;48.692;8.948;2023-04-19T01:10:54;13.95;;;11.07;;
72273;SDS011;60208;48.692;8.948;2023-04-19T01:13:20;13.05;;;11.02;;
72273;SDS011;60208;48.692;8.948;2023-04-19T01:15:45;12.85;;;10.65;;
72273;SDS011;60208;48.692;8.948;2023-04-19T01:18:11;13.23;;;10.80;;
72273;SDS011;60208;48.692;8.948;2023-04-19T01:20:37;13.77;;;10.93;;
72273;SDS011;60208;48.692;8.948;2023-04-19T01:23:03;13.77;;;11.30;;
72273;SDS011;60208;48.692;8.948;2023-04-19T01:25:28;14.45;;;11.30;;
72273;SDS011;60208;48.692;8.948;2023-04-19T01:27:53;14.73;;;11.70;;
72273;SDS011;60208;48.692;8.948;2023-04-19T01:30:20;15.60;;;11.27;;
72273;SDS011;60208;48.692;8.948;2023-04-19T01:32:46;12.80;;;10.55;;
72273;SDS011;60208;48.692;8.948;2023-04-19T01:35:11;14.45;;;12.00;;
72273;SDS011;60208;48.692;8.948;2023-04-19T01:37:36;16.13;;;12.30;;
72273;SDS011;60208;48.692;8.948;2023-04-19T01:40:03;15.48;;;12.18;;
72273;SDS011;60208;48.692;8.948;2023-04-19T01:42:29;13.75;;;11.88;;
72273;SDS011;60208;48.692;8.948;2023-04-19T01:44:54;16.92;;;11.52;;
72273;SDS011;60208;48.692;8.948;2023-04-19T01:47:22;14.80;;;11.85;;
72273;SDS011;60208;48.692;8.948;2023-04-19T01:49:47;15.90;;;11.50;;
72273;SDS011;60208;48.692;8.948;2023-04-19T01:52:12;15.00;;;11.70;;
72273;SDS011;60208;48.692;8.948;2023-04-19T01:54:38;15.10;;;11.65;;
72273;SDS011;60208;48.692;8.948;2023-04-19T01:57:03;15.23;;;11.38;;
72273;SDS011;60208;48.692;8.948;2023-04-19T01:59:29;14.23;;;11.80;;
72273;SDS011;60208;48.692;8.948;2023-04-19T02:01:54;15.30;;;12.05;;
72273;SDS011;60208;48.692;8.948;2023-04-19T02:04:20;16.50;;;12.23;;
72273;SDS011;60208;48.692;8.948;2023-04-19T02:06:46;14.95;;;11.95;;
72273;SDS011;60208;48.692;8.948;2023-04-19T02:09:11;16.15;;;12.35;;
72273;SDS011;60208;48.692;8.948;2023-04-19T02:11:37;15.38;;;12.45;;
72273;SDS011;60208;48.692;8.948;2023-04-19T02:14:03;15.70;;;12.88;;
72273;SDS011;60208;48.692;8.948;2023-04-19T02:16:28;17.75;;;13.13;;
72273;SDS011;60208;48.692;8.948;2023-04-19T02:18:53;15.85;;;12.30;;
72273;SDS011;60208;48.692;8.948;2023-04-19T02:21:19;15.95;;;12.85;;
72273;SDS011;60208;48.692;8.948;2023-04-19T02:23:44;17.77;;;13.10;;
72273;SDS011;60208;48.692;8.948;2023-04-19T02:26:10;16.70;;;13.18;;
72273;SDS011;60208;48.692;8.948;2023-04-19T02:28:37;17.27;;;12.90;;
72273;SDS011;60208;48.692;8.948;2023-04-19T02:31:03;18.15;;;12.98;;
72273;SDS011;60208;48.692;8.948;2023-04-19T02:33:30;16.40;;;13.05;;
72273;SDS011;60208;48.692;8.948;2023-04-19T02:35:55;18.13;;;13.10;;
72273;SDS011;60208;48.692;8.948;2023-04-19T02:38:22;16.65;;;12.93;;
72273;SDS011;60208;48.692;8.948;2023-04-19T02:40:47;18.67;;;13.55;;
72273;SDS011;60208;48.692;8.948;2023-04-19T02:43:13;17.25;;;13.45;;
72273;SDS011;60208;48.692;8.948;2023-04-19T02:45:38;18.95;;;13.45;;
72273;SDS011;60208;48.692;8.948;2023-04-19T02:48:04;18.23;;;13.23;;
72273;SDS011;60208;48.692;8.948;2023-04-19T02:50:31;17.70;;;13.65;;
72273;SDS011;60208;48.692;8.948;2023-04-19T02:52:57;16.83;;;13.25;;
72273;SDS011;60208;48.692;8.948;2023-04-19T02:55:22;17.08;;;13.70;;
72273;SDS011;60208;48.692;8.948;2023-04-19T02:57:48;18.48;;;14.63;;
72273;SDS011;60208;48.692;8.948;2023-04-19T03:00:14;19.58;;;14.30;;
72273;SDS011;60208;48.692;8.948;2023-04-19T03:02:40;21.27;;;14.43;;
72273;SDS011;60208;48.692;8.948;2023-04-19T03:05:07;20.95;;;14.80;;
72273;SDS011;60208;48.692;8.948;2023-04-19T03:07:33;20.88;;;14.27;;
72273;SDS011;60208;48.692;8.948;2023-04-19T03:09:59;17.58;;;14.13;;
72273;SDS011;60208;48.692;8.948;2023-04-19T03:12:25;18.77;;;14.45;;
72273;SDS011;60208;48.692;8.948;2023-04-19T03:14:50;19.63;;;14.40;;
72273;SDS011;60208;48.692;8.948;2023-04-19T03:17:15;21.40;;;15.80;;
72273;SDS011;60208;48.692;8.948;2023-04-19T03:19:41;19.10;;;14.52;;
72273;SDS011;60208;48.692;8.948;2023-04-19T03:22:06;22.60;;;14.73;;
72273;SDS011;60208;48.692;8.948;2023-04-19T03:24:32;21.10;;;15.07;;
72273;SDS011;60208;48.692;8.948;2023-04-19T03:26:57;18.02;;;14.07;;
72273;SDS011;60208;48.692;8.948;2023-04-19T03:29:23;20.85;;;14.77;;
72273;SDS011;60208;48.692;8.948;2023-04-19T03:31:48;20.80;;;15.35;;
72273;SDS011;60208;48.692;8.948;2023-04-19T03:34:14;20.58;;;15.25;;
72273;SDS011;60208;48.692;8.948;2023-04-19T03:36:40;19.73;;;14.52;;
72273;SDS011;60208;48.692;8.948;2023-04-19T03:39:05;18.83;;;14.70;;
72273;SDS011;60208;48.692;8.948;2023-04-19T03:41:31;19.55;;;15.20;;
72273;SDS011;60208;48.692;8.948;2023-04-19T03:43:56;20.10;;;14.63;;
72273;SDS011;60208;48.692;8.948;2023-04-19T03:46:23;18.63;;;14.70;;
72273;SDS011;60208;48.692;8.948;2023-04-19T03:48:48;21.58;;;15.30;;
72273;SDS011;60208;48.692;8.948;2023-04-19T03:51:15;20.92;;;16.17;;
72273;SDS011;60208;48.692;8.948;2023-04-19T03:53:40;20.77;;;15.25;;
72273;SDS011;60208;48.692;8.948;2023-04-19T03:56:06;20.95;;;15.30;;
72273;SDS011;60208;48.692;8.948;2023-04-19T03:58:31;20.45;;;15.50;;
72273;SDS011;60208;48.692;8.948;2023-04-19T04:00:57;20.95;;;15.63;;
72273;SDS011;60208;48.692;8.948;2023-04-19T04:03:23;23.50;;;16.30;;
72273;SDS011;60208;48.692;8.948;2023-04-19T04:05:48;18.15;;;15.52;;
72273;SDS011;60208;48.692;8.948;2023-04-19T04:08:14;21.77;;;15.93;;
72273;SDS011;60208;48.692;8.948;2023-04-19T04:10:39;24.20;;;15.90;;
72273;SDS011;60208;48.692;8.948;2023-04-19T04:13:04;21.33;;;16.05;;
72273;SDS011;60208;48.692;8.948;2023-04-19T04:15:30;21.60;;;16.33;;
72273;SDS011;60208;48.692;8.948;2023-04-19T04:17:55;20.42;;;15.98;;
72273;SDS011;60208;48.692;8.948;2023-04-19T04:20:21;19.65;;;16.25;;
72273;SDS011;60208;48.692;8.948;2023-04-19T04:22:46;21.25;;;16.42;;
72273;SDS011;60208;48.692;8.948;2023-04-19T04:25:12;23.38;;;17.42;;
72273;SDS011;60208;48.692;8.948;2023-04-19T04:27:40;23.20;;;17.45;;
72273;SDS011;60208;48.692;8.948;2023-04-19T04:30:07;22.48;;;17.30;;
72273;SDS011;60208;48.692;8.948;2023-04-19T04:32:33;21.83;;;17.13;;
72273;SDS011;60208;48.692;8.948;2023-04-19T04:35:00;24.52;;;17.90;;
72273;SDS011;60208;48.692;8.948;2023-04-19T04:37:26;21.80;;;16.98;;
72273;SDS011;60208;48.692;8.948;2023-04-19T04:39:51;23.60;;;17.90;;
72273;SDS011;60208;48.692;8.948;2023-04-19T04:42:16;24.85;;;17.80;;
72273;SDS011;60208;48.692;8.948;2023-04-19T04:44:45;24.10;;;17.63;;
72273;SDS011;60208;48.692;8.948;2023-04-19T04:47:11;23.35;;;17.92;;
72273;SDS011;60208;48.692;8.948;2023-04-19T04:49:37;25.50;;;18.55;;
72273;SDS011;60208;48.692;8.948;2023-04-19T04:52:03;22.48;;;17.45;;
72273;SDS011;60208;48.692;8.948;2023-04-19T04:54:29;22.85;;;17.88;;
72273;SDS011;60208;48.692;8.948;2023-04-19T04:56:54;24.88;;;17.95;;
72273;SDS011;60208;48.692;8.948;2023-04-19T04:59:20;22.65;;;18.10;;
72273;SDS011;60208;48.692;8.948;2023-04-19T05:01:45;26.88;;;18.08;;
72273;SDS011;60208;48.692;8.948;2023-04-19T05:04:10;24.25;;;18.42;;
72273;SDS011;60208;48.692;8.948;2023-04-19T05:06:36;26.25;;;18.83;;
72273;SDS011;60208;48.692;8.948;2023-04-19T05:09:04;23.33;;;18.35;;
72273;SDS011;60208;48.692;8.948;2023-04-19T05:11:30;22.27;;;17.95;;
72273;SDS011;60208;48.692;8.948;2023-04-19T05:13:56;21.58;;;17.30;;
72273;SDS011;60208;48.692;8.948;2023-04-19T05:16:21;22.15;;;17.52;;
72273;SDS011;60208;48.692;8.948;2023-04-19T05:18:47;26.05;;;18.02;;
72273;SDS011;60208;48.692;8.948;2023-04-19T05:21:12;23.08;;;17.77;;
72273;SDS011;60208;48.692;8.948;2023-04-19T05:23:38;23.33;;;18.25;;
72273;SDS011;60208;48.692;8.948;2023-04-19T05:26:03;21.58;;;17.67;;
72273;SDS011;60208;48.692;8.948;2023-04-19T05:28:29;23.15;;;18.02;;
72273;SDS011;60208;48.692;8.948;2023-04-19T05:30:54;26.90;;;18.27;;
72273;SDS011;60208;48.692;8.948;2023-04-19T05:33:20;24.30;;;18.30;;
72273;SDS011;60208;48.692;8.948;2023-04-19T05:35:45;24.38;;;17.80;;
72273;SDS011;60208;48.692;8.948;2023-04-19T05:38:10;23.90;;;17.88;;
72273;SDS011;60208;48.692;8.948;2023-04-19T05:40:36;25.63;;;17.85;;
72273;SDS011;60208;48.692;8.948;2023-04-19T05:43:02;21.95;;;17.63;;
72273;SDS011;60208;48.692;8.948;2023-04-19T05:45:28;23.55;;;17.85;;
72273;SDS011;60208;48.692;8.948;2023-04-19T05:47:53;23.40;;;17.88;;
72273;SDS011;60208;48.692;8.948;2023-04-19T05:50:19;23.10;;;17.92;;
72273;SDS011;60208;48.692;8.948;2023-04-19T05:52:45;23.55;;;17.48;;
72273;SDS011;60208;48.692;8.948;2023-04-19T05:55:10;23.30;;;17.08;;
72273;SDS011;60208;48.692;8.948;2023-04-19T05:57:35;21.92;;;17.48;;
72273;SDS011;60208;48.692;8.948;2023-04-19T06:00:01;24.75;;;17.27;;
72273;SDS011;60208;48.692;8.948;2023-04-19T06:02:28;21.13;;;16.80;;
72273;SDS011;60208;48.692;8.948;2023-04-19T06:04:54;20.73;;;16.98;;
72273;SDS011;60208;48.692;8.948;2023-04-19T06:07:21;24.13;;;17.92;;
72273;SDS011;60208;48.692;8.948;2023-04-19T06:09:47;21.70;;;16.95;;
72273;SDS011;60208;48.692;8.948;2023-04-19T06:12:12;23.45;;;16.77;;
72273;SDS011;60208;48.692;8.948;2023-04-19T06:14:38;21.10;;;16.85;;
72273;SDS011;60208;48.692;8.948;2023-04-19T06:17:03;24.23;;;17.48;;
72273;SDS011;60208;48.692;8.948;2023-04-19T06:19:29;20.33;;;16.20;;
72273;SDS011;60208;48.692;8.948;2023-04-19T06:21:56;19.80;;;15.80;;
72273;SDS011;60208;48.692;8.948;2023-04-19T06:24:21;21.88;;;16.35;;
72273;SDS011;60208;48.692;8.948;2023-04-19T06:26:47;21.90;;;16.58;;
72273;SDS011;60208;48.692;8.948;2023-04-19T06:29:13;20.55;;;14.80;;
72273;SDS011;60208;48.692;8.948;2023-04-19T06:31:39;20.13;;;15.90;;
72273;SDS011;60208;48.692;8.948;2023-04-19T06:34:04;21.98;;;15.82;;
72273;SDS011;60208;48.692;8.948;2023-04-19T06:36:29;19.90;;;15.35;;
72273;SDS011;60208;48.692;8.948;2023-04-19T06:38:56;21.63;;;14.98;;
72273;SDS011;60208;48.692;8.948;2023-04-19T06:41:21;21.00;;;14.80;;
72273;SDS011;60208;48.692;8.948;2023-04-19T06:43:47;17.83;;;15.20;;
72273;SDS011;60208;48.692;8.948;2023-04-19T06:46:12;23.77;;;16.25;;
72273;SDS011;60208;48.692;8.948;2023-04-19T06:48:38;20.60;;;15.68;;
72273;SDS011;60208;48.692;8.948;2023-04-19T06:51:04;20.20;;;15.80;;
72273;SDS011;60208;48.692;8.948;2023-04-19T06:53:29;20.27;;;15.70;;
72273;SDS011;60208;48.692;8.948;2023-04-19T06:55:58;18.23;;;15.00;;
72273;SDS011;60208;48.692;8.948;2023-04-19T06:58:26;17.42;;;14.95;;
72273;SDS011;60208;48.692;8.948;2023-04-19T07:00:52;19.73;;;14.95;;
72273;SDS011;60208;48.692;8.948;2023-04-19T07:03:17;18.98;;;14.70;;
72273;SDS011;60208;48.692;8.948;2023-04-19T07:05:43;19.30;;;15.32;;
72273;SDS011;60208;48.692;8.948;2023-04-19T07:08:08;19.98;;;15.07;;
72273;SDS011;60208;48.692;8.948;2023-04-19T07:10:34;16.83;;;14.10;;
72273;SDS011;60208;48.692;8.948;2023-04-19T07:12:59;17.77;;;13.77;;
72273;SDS011;60208;48.692;8.948;2023-04-19T07:15:24;18.17;;;14.23;;
72273;SDS011;60208;48.692;8.948;2023-04-19T07:17:50;19.20;;;14.50;;
72273;SDS011;60208;48.692;8.948;2023-04-19T07:20:15;18.02;;;13.98;;
72273;SDS011;60208;48.692;8.948;2023-04-19T07:22:40;17.00;;;14.13;;
72273;SDS011;60208;48.692;8.948;2023-04-19T07:25:07;16.85;;;14.27;;
72273;SDS011;60208;48.692;8.948;2023-04-19T07:27:33;17.13;;;14.30;;
72273;SDS011;60208;48.692;8.948;2023-04-19T07:29:58;17.33;;;13.73;;
72273;SDS011;60208;48.692;8.948;2023-04-19T07:32:24;15.85;;;13.00;;
72273;SDS011;60208;48.692;8.948;2023-04-19T07:34:49;16.13;;;13.38;;
72273;SDS011;60208;48.692;8.948;2023-04-19T07:37:15;15.38;;;12.88;;
72273;SDS011;60208;48.692;8.948;2023-04-19T07:39:41;16.15;;;12.70;;
72273;SDS011;60208;48.692;8.948;2023-04-19T07:42:06;16.13;;;14.15;;
72273;SDS011;60208;48.692;8.948;2023-04-19T07:44:32;17.73;;;15.57;;
72273;SDS011;60208;48.692;8.948;2023-04-19T07:46:57;13.73;;;12.32;;
72273;SDS011;60208;48.692;8.948;2023-04-19T07:49:23;16.20;;;11.82;;
72273;SDS011;60208;48.692;8.948;2023-04-19T07:51:48;12.60;;;11.07;;
72273;SDS011;60208;48.692;8.948;2023-04-19T07:54:14;14.25;;;11.13;;
72273;SDS011;60208;48.692;8.948;2023-04-19T07:56:44;14.88;;;11.75;;
72273;SDS011;60208;48.692;8.948;2023-04-19T07:59:09;13.48;;;11.50;;
72273;SDS011;60208;48.692;8.948;2023-04-19T08:01:35;14.95;;;11.95;;
72273;SDS011;60208;48.692;8.948;2023-04-19T08:04:00;16.05;;;11.75;;
72273;SDS011;60208;48.692;8.948;2023-04-19T08:06:26;12.63;;;10.48;;
72273;SDS011;60208;48.692;8.948;2023-04-19T08:08:51;13.90;;;12.00;;
72273;SDS011;60208;48.692;8.948;2023-04-19T08:11:17;14.85;;;12.40;;
72273;SDS011;60208;48.692;8.948;2023-04-19T08:13:42;16.75;;;13.10;;
72273;SDS011;60208;48.692;8.948;2023-04-19T08:16:08;15.30;;;12.98;;
72273;SDS011;60208;48.692;8.948;2023-04-19T08:18:33;14.55;;;13.05;;
72273;SDS011;60208;48.692;8.948;2023-04-19T08:20:59;18.00;;;14.00;;
72273;SDS011;60208;48.692;8.948;2023-04-19T08:23:25;14.93;;;12.60;;
72273;SDS011;60208;48.692;8.948;2023-04-19T08:25:50;14.20;;;12.20;;
72273;SDS011;60208;48.692;8.948;2023-04-19T08:28:16;16.90;;;12.57;;
72273;SDS011;60208;48.692;8.948;2023-04-19T08:30:42;17.45;;;12.40;;
72273;SDS011;60208;48.692;8.948;2023-04-19T08:33:07;13.68;;;11.82;;
72273;SDS011;60208;48.692;8.948;2023-04-19T08:35:33;13.48;;;11.55;;
72273;SDS011;60208;48.692;8.948;2023-04-19T08:38:00;15.50;;;11.60;;
72273;SDS011;60208;48.692;8.948;2023-04-19T08:40:26;14.80;;;11.50;;
72273;SDS011;60208;48.692;8.948;2023-04-19T08:42:52;13.60;;;11.57;;
72273;SDS011;60208;48.692;8.948;2023-04-19T08:45:17;12.32;;;11.02;;
72273;SDS011;60208;48.692;8.948;2023-04-19T08:47:43;13.02;;;11.18;;
72273;SDS011;60208;48.692;8.948;2023-04-19T08:50:09;15.40;;;11.05;;
72273;SDS011;60208;48.692;8.948;2023-04-19T08:52:35;12.50;;;11.20;;
72273;SDS011;60208;48.692;8.948;2023-04-19T08:55:04;15.82;;;12.40;;
72273;SDS011;60208;48.692;8.948;2023-04-19T08:57:32;14.30;;;10.65;;
72273;SDS011;60208;48.692;8.948;2023-04-19T09:00:00;12.18;;;10.35;;
72273;SDS011;60208;48.692;8.948;2023-04-19T09:02:26;13.60;;;9.98;;
72273;SDS011;60208;48.692;8.948;2023-04-19T09:04:51;12.98;;;9.65;;
72273;SDS011;60208;48.692;8.948;2023-04-19T09:07:23;13.35;;;9.95;;
72273;SDS011;60208;48.692;8.948;2023-04-19T09:10:06;12.38;;;9.88;;
72273;SDS011;60208;48.692;8.948;2023-04-19T09:12:34;11.90;;;9.32;;
72273;SDS011;60208;48.692;8.948;2023-04-19T09:15:02;10.70;;;9.32;;
72273;SDS011;60208;48.692;8.948;2023-04-19T09:17:31;11.95;;;9.57;;
72273;SDS011;60208;48.692;8.948;2023-04-19T09:19:56;12.32;;;8.85;;
72273;SDS011;60208;48.692;8.948;2023-04-19T09:22:22;12.30;;;8.40;;
72273;SDS011;60208;48.692;8.948;2023-04-19T09:24:48;10.98;;;8.30;;
72273;SDS011;60208;48.692;8.948;2023-04-19T09:27:30;9.98;;;7.90;;
72273;SDS011;60208;48.692;8.948;2023-04-19T09:29:58;10.30;;;7.50;;
72273;SDS011;60208;48.692;8.948;2023-04-19T09:32:24;8.98;;;7.68;;
72273;SDS011;60208;48.692;8.948;2023-04-19T09:34:54;10.50;;;7.80;;
72273;SDS011;60208;48.692;8.948;2023-04-19T09:37:21;8.65;;;7.30;;
72273;SDS011;60208;48.692;8.948;2023-04-19T09:39:47;8.63;;;7.50;;
72273;SDS011;60208;48.692;8.948;2023-04-19T09:42:12;7.60;;;6.80;;
72273;SDS011;60208;48.692;8.948;2023-04-19T09:44:38;8.05;;;6.82;;
72273;SDS011;60208;48.692;8.948;2023-04-19T09:50:02;9.30;;;7.65;;
72273;SDS011;60208;48.692;8.948;2023-04-19T09:52:31;10.25;;;8.90;;
72273;SDS011;60208;48.692;8.948;2023-04-19T09:54:59;10.88;;;8.70;;
72273;SDS011;60208;48.692;8.948;2023-04-19T09:57:25;9.25;;;7.68;;
72273;SDS011;60208;48.692;8.948;2023-04-19T09:59:51;8.20;;;6.97;;
72273;SDS011;60208;48.692;8.948;2023-04-19T10:02:16;8.55;;;7.30;;
72273;SDS011;60208;48.692;8.948;2023-04-19T10:04:42;11.80;;;8.95;;
72273;SDS011;60208;48.692;8.948;2023-04-19T10:07:08;12.57;;;10.15;;
72273;SDS011;60208;48.692;8.948;2023-04-19T10:09:33;9.30;;;8.07;;
72273;SDS011;60208;48.692;8.948;2023-04-19T10:11:59;12.65;;;8.45;;
72273;SDS011;60208;48.692;8.948;2023-04-19T10:14:25;10.77;;;9.20;;
72273;SDS011;60208;48.692;8.948;2023-04-19T10:16:53;11.02;;;9.48;;
72273;SDS011;60208;48.692;8.948;2023-04-19T10:19:21;13.07;;;9.63;;
72273;SDS011;60208;48.692;8.948;2023-04-19T10:21:47;11.80;;;9.43;;
72273;SDS011;60208;48.692;8.948;2023-04-19T10:24:13;13.27;;;10.15;;
72273;SDS011;60208;48.692;8.948;2023-04-19T10:32:18;12.90;;;9.45;;
72273;SDS011;60208;48.692;8.948;2023-04-19T10:34:46;11.30;;;9.52;;
72273;SDS011;60208;48.692;8.948;2023-04-19T10:37:14;10.98;;;9.73;;
72273;SDS011;60208;48.692;8.948;2023-04-19T10:39:41;10.88;;;9.75;;
72273;SDS011;60208;48.692;8.948;2023-04-19T10:42:08;9.52;;;8.38;;
72273;SDS011;60208;48.692;8.948;2023-04-19T10:44:33;16.67;;;9.80;;
72273;SDS011;60208;48.692;8.948;2023-04-19T10:46:59;9.93;;;8.70;;
72273;SDS011;60208;48.692;8.948;2023-04-19T10:49:27;10.40;;;8.88;;
72273;SDS011;60208;48.692;8.948;2023-04-19T10:51:53;10.30;;;9.05;;
72273;SDS011;60208;48.692;8.948;2023-04-19T10:54:31;12.32;;;9.65;;
72273;SDS011;60208;48.692;8.948;2023-04-19T10:57:02;12.23;;;9.98;;
72273;SDS011;60208;48.692;8.948;2023-04-19T10:59:32;13.48;;;10.10;;
72273;SDS011;60208;48.692;8.948;2023-04-19T11:01:59;11.43;;;9.68;;
72273;SDS011;60208;48.692;8.948;2023-04-19T11:09:23;11.27;;;9.13;;
72273;SDS011;60208;48.692;8.948;2023-04-19T11:12:03;10.00;;;8.30;;
72273;SDS011;60208;48.692;8.948;2023-04-19T11:14:36;8.93;;;8.02;;
72273;SDS011;60208;48.692;8.948;2023-04-19T11:17:27;9.98;;;8.85;;
72273;SDS011;60208;48.692;8.948;2023-04-19T11:19:57;10.65;;;8.40;;
72273;SDS011;60208;48.692;8.948;2023-04-19T11:27:21;11.88;;;8.48;;
72273;SDS011;60208;48.692;8.948;2023-04-19T11:29:46;10.75;;;8.63;;
72273;SDS011;60208;48.692;8.948;2023-04-19T11:32:12;12.80;;;9.02;;
72273;SDS011;60208;48.692;8.948;2023-04-19T11:34:39;14.35;;;9.50;;
72273;SDS011;60208;48.692;8.948;2023-04-19T11:37:04;10.23;;;8.90;;
72273;SDS011;60208;48.692;8.948;2023-04-19T11:39:30;11.88;;;8.68;;
72273;SDS011;60208;48.692;8.948;2023-04-19T11:41:55;11.55;;;8.65;;
72273;SDS011;60208;48.692;8.948;2023-04-19T11:44:22;11.70;;;9.50;;
72273;SDS011;60208;48.692;8.948;2023-04-19T11:46:57;9.18;;;8.15;;
72273;SDS011;60208;48.692;8.948;2023-04-19T11:49:26;14.35;;;9.55;;
72273;SDS011;60208;48.692;8.948;2023-04-19T11:52:01;10.10;;;8.95;;
72273;SDS011;60208;48.692;8.948;2023-04-19T11:54:29;13.23;;;9.48;;
72273;SDS011;60208;48.692;8.948;2023-04-19T11:59:31;10.43;;;9.23;;
72273;SDS011;60208;48.692;8.948;2023-04-19T12:02:31;14.25;;;10.18;;
72273;SDS011;60208;48.692;8.948;2023-04-19T12:04:49;10.23;;;9.13;;
72273;SDS011;60208;48.692;8.948;2023-04-19T12:07:15;10.50;;;9.38;;
72273;SDS011;60208;48.692;8.948;2023-04-19T12:09:41;11.20;;;9.73;;
72273;SDS011;60208;48.692;8.948;2023-04-19T12:12:06;13.45;;;10.75;;
72273;SDS011;60208;48.692;8.948;2023-04-19T12:14:32;18.23;;;10.95;;
72273;SDS011;60208;48.692;8.948;2023-04-19T12:17:08;14.88;;;11.50;;
72273;SDS011;60208;48.692;8.948;2023-04-19T12:19:35;16.88;;;12.23;;
72273;SDS011;60208;48.692;8.948;2023-04-19T12:22:17;14.48;;;11.80;;
72273;SDS011;60208;48.692;8.948;2023-04-19T12:24:44;16.05;;;12.65;;
72273;SDS011;60208;48.692;8.948;2023-04-19T12:27:10;18.20;;;13.35;;
72273;SDS011;60208;48.692;8.948;2023-04-19T12:29:36;14.32;;;12.55;;
72273;SDS011;60208;48.692;8.948;2023-04-19T12:32:02;17.13;;;12.15;;
72273;SDS011;60208;48.692;8.948;2023-04-19T12:34:28;15.40;;;12.88;;
72273;SDS011;60208;48.692;8.948;2023-04-19T12:36:54;16.50;;;13.10;;
72273;SDS011;60208;48.692;8.948;2023-04-19T12:39:19;16.23;;;12.77;;
72273;SDS011;60208;48.692;8.948;2023-04-19T12:41:45;14.40;;;12.77;;
72273;SDS011;60208;48.692;8.948;2023-04-19T12:44:12;15.25;;;12.30;;
72273;SDS011;60208;48.692;8.948;2023-04-19T12:46:38;15.63;;;13.32;;
72273;SDS011;60208;48.692;8.948;2023-04-19T12:49:03;18.83;;;12.10;;
72273;SDS011;60208;48.692;8.948;2023-04-19T12:51:29;14.13;;;12.27;;
72273;SDS011;60208;48.692;8.948;2023-04-19T12:53:55;12.98;;;11.57;;
72273;SDS011;60208;48.692;8.948;2023-04-19T12:56:21;15.18;;;13.10;;
72273;SDS011;60208;48.692;8.948;2023-04-19T12:58:46;16.52;;;13.52;;
72273;SDS011;60208;48.692;8.948;2023-04-19T13:01:11;16.05;;;14.15;;
72273;SDS011;60208;48.692;8.948;2023-04-19T13:03:37;16.98;;;13.07;;
72273;SDS011;60208;48.692;8.948;2023-04-19T13:06:02;18.33;;;13.93;;
72273;SDS011;60208;48.692;8.948;2023-04-19T13:08:28;16.38;;;13.70;;
72273;SDS011;60208;48.692;8.948;2023-04-19T13:10:56;17.15;;;14.35;;
72273;SDS011;60208;48.692;8.948;2023-04-19T13:13:25;20.27;;;15.57;;
72273;SDS011;60208;48.692;8.948;2023-04-19T13:15:50;20.77;;;16.17;;
72273;SDS011;60208;48.692;8.948;2023-04-19T13:18:16;19.73;;;16.08;;
72273;SDS011;60208;48.692;8.948;2023-04-19T13:20:42;20.42;;;17.23;;
72273;SDS011;60208;48.692;8.948;2023-04-19T13:23:07;22.90;;;17.10;;
72273;SDS011;60208;48.692;8.948;2023-04-19T13:25:32;28.42;;;18.38;;
72273;SDS011;60208;48.692;8.948;2023-04-19T13:27:58;25.75;;;18.02;;
72273;SDS011;60208;48.692;8.948;2023-04-19T13:30:23;25.30;;;17.70;;
72273;SDS011;60208;48.692;8.948;2023-04-19T13:32:49;27.80;;;18.42;;
72273;SDS011;60208;48.692;8.948;2023-04-19T13:35:14;26.10;;;18.20;;
72273;SDS011;60208;48.692;8.948;2023-04-19T13:37:39;26.75;;;18.13;;
72273;SDS011;60208;48.692;8.948;2023-04-19T13:40:08;23.67;;;18.58;;
72273;SDS011;60208;48.692;8.948;2023-04-19T13:42:34;22.60;;;16.73;;
72273;SDS011;60208;48.692;8.948;2023-04-19T13:44:59;24.80;;;17.55;;
72273;SDS011;60208;48.692;8.948;2023-04-19T13:47:25;25.33;;;17.25;;
72273;SDS011;60208;48.692;8.948;2023-04-19T13:49:50;22.50;;;16.92;;
72273;SDS011;60208;48.692;8.948;2023-04-19T13:52:19;22.50;;;17.48;;
72273;SDS011;60208;48.692;8.948;2023-04-19T13:54:44;23.85;;;16.98;;
72273;SDS011;60208;48.692;8.948;2023-04-19T13:57:10;23.38;;;17.30;;
72273;SDS011;60208;48.692;8.948;2023-04-19T13:59:36;23.52;;;17.77;;
72273;SDS011;60208;48.692;8.948;2023-04-19T14:02:02;20.10;;;16.45;;
72273;SDS011;60208;48.692;8.948;2023-04-19T14:04:27;24.73;;;18.05;;
72273;SDS011;60208;48.692;8.948;2023-04-19T14:06:53;22.20;;;17.42;;
72273;SDS011;60208;48.692;8.948;2023-04-19T14:09:18;24.67;;;16.80;;
72273;SDS011;60208;48.692;8.948;2023-04-19T14:11:44;24.17;;;17.27;;
72273;SDS011;60208;48.692;8.948;2023-04-19T14:14:09;23.55;;;17.38;;
72273;SDS011;60208;48.692;8.948;2023-04-19T14:16:35;23.48;;;16.50;;
72273;SDS011;60208;48.692;8.948;2023-04-19T14:19:00;24.35;;;17.55;;
72273;SDS011;60208;48.692;8.948;2023-04-19T14:21:26;24.88;;;17.60;;
72273;SDS011;60208;48.692;8.948;2023-04-19T14:23:52;21.95;;;17.05;;
72273;SDS011;60208;48.692;8.948;2023-04-19T14:26:18;22.23;;;17.35;;
72273;SDS011;60208;48.692;8.948;2023-04-19T14:28:43;24.05;;;17.13;;
72273;SDS011;60208;48.692;8.948;2023-04-19T14:31:08;21.45;;;16.58;;
72273;SDS011;60208;48.692;8.948;2023-04-19T14:33:34;22.92;;;17.05;;
72273;SDS011;60208;48.692;8.948;2023-04-19T14:36:00;22.42;;;17.58;;
72273;SDS011;60208;48.692;8.948;2023-04-19T14:38:25;23.55;;;17.05;;
72273;SDS011;60208;48.692;8.948;2023-04-19T14:40:50;24.10;;;16.45;;